createdAt,value
2022-08-03T00:00:43.317Z,99666.06
2022-08-03T00:03:12.238Z,99666.63
2022-08-03T00:05:41.179Z,99665.94
2022-08-03T00:08:30.570Z,99669.62
2022-08-03T00:11:02.272Z,99665.63
2022-08-03T00:13:32.568Z,99667.72
2022-08-03T00:16:01.364Z,99665.19
2022-08-03T00:18:30.064Z,99673.09
2022-08-03T00:21:00.337Z,99669.81
2022-08-03T00:23:51.682Z,99672.31
2022-08-03T00:26:39.630Z,99673.59
2022-08-03T00:29:11.420Z,99672.41
2022-08-03T00:31:59.560Z,99670.19
2022-08-03T00:34:57.363Z,99668.69
2022-08-03T00:37:21.983Z,99666.28
2022-08-03T00:40:12.071Z,99677.72
2022-08-03T00:42:52.273Z,99676.53
2022-08-03T00:45:26.525Z,99673.44
2022-08-03T00:47:55.813Z,99680.06
2022-08-03T00:50:25.751Z,99677.03
2022-08-03T00:52:57.290Z,99680.13
2022-08-03T00:55:26.271Z,99681.56
2022-08-03T00:57:55.213Z,99672.47
2022-08-03T01:00:26.414Z,99679.19
2022-08-03T01:02:55.615Z,99678.50
2022-08-03T01:05:24.326Z,99677.50
2022-08-03T01:08:07.093Z,99678.81
2022-08-03T01:10:43.221Z,99676.06
2022-08-03T01:13:59.801Z,99678.50
2022-08-03T01:16:36.011Z,99680.50
2022-08-03T01:19:17.560Z,99670.97
2022-08-03T01:22:01.130Z,99681.19
2022-08-03T01:25:08.733Z,99680.69
2022-08-03T01:27:49.298Z,99682.97
2022-08-03T01:30:21.453Z,99681.66
2022-08-03T01:33:01.418Z,99682.53
2022-08-03T01:35:38.540Z,99677.16
2022-08-03T01:38:13.456Z,99677.06
2022-08-03T01:40:47.127Z,99685.38
2022-08-03T01:44:27.947Z,99675.34
2022-08-03T01:46:12.740Z,99682.53
2022-08-03T01:48:45.206Z,99681.13
2022-08-03T01:51:17.197Z,99677.16
2022-08-03T01:53:49.307Z,99671.31
2022-08-03T01:56:21.470Z,99677.53
2022-08-03T01:58:53.595Z,99675.94
2022-08-03T02:01:26.818Z,99679.88
2022-08-03T02:04:19.918Z,99681.34
2022-08-03T02:07:01.615Z,99684.53
2022-08-03T02:09:36.926Z,99688.31
2022-08-03T02:12:10.506Z,99684.22
2022-08-03T02:14:43.647Z,99684.91
2022-08-03T02:17:16.778Z,99691.50
2022-08-03T02:19:47.843Z,99682.97
2022-08-03T02:22:18.309Z,99686.31
2022-08-03T02:24:49.349Z,99682.34
2022-08-03T02:37:11.069Z,99683.84
2022-08-03T02:39:43.845Z,99682.69
2022-08-03T02:42:15.395Z,99688.75
2022-08-03T02:44:48.553Z,99687.06
2022-08-03T02:47:22.145Z,99691.00
2022-08-03T02:49:53.372Z,99688.37
2022-08-03T02:52:26.493Z,99689.88
2022-08-03T02:54:59.762Z,99690.47
2022-08-03T02:57:31.456Z,99687.50
2022-08-03T03:00:02.387Z,99684.84
2022-08-03T03:02:33.385Z,99690.88
2022-08-03T03:05:55.201Z,99693.19
2022-08-03T03:07:56.974Z,99691.16
2022-08-03T03:10:27.255Z,99681.78
2022-08-03T03:12:57.481Z,99689.78
2022-08-03T03:15:28.107Z,99689.50
2022-08-03T03:17:56.798Z,99684.12
2022-08-03T03:20:29.677Z,99688.47
2022-08-03T03:23:01.611Z,99692.78
2022-08-03T03:25:32.430Z,99693.34
2022-08-03T03:28:02.176Z,99684.28
2022-08-03T03:30:31.090Z,99681.34
2022-08-03T03:33:00.102Z,99691.34
2022-08-03T03:35:29.264Z,99682.03
2022-08-03T03:38:01.049Z,99694.69
2022-08-03T03:40:29.994Z,99689.56
2022-08-03T03:42:58.656Z,99692.69
2022-08-03T03:45:27.880Z,99697.13
2022-08-03T03:47:56.787Z,99693.66
2022-08-03T03:50:25.627Z,99696.81
2022-08-03T03:52:54.238Z,99691.62
2022-08-03T03:55:24.778Z,99692.88
2022-08-03T03:57:53.350Z,99688.34
2022-08-03T04:00:22.038Z,99697.41
2022-08-03T04:02:51.013Z,99695.53
2022-08-03T04:05:37.329Z,99695.87
2022-08-03T04:08:29.772Z,99697.41
2022-08-03T04:11:15.822Z,99696.78
2022-08-03T04:13:49.959Z,99706.00
2022-08-03T04:16:20.751Z,99700.72
2022-08-03T04:18:52.888Z,99705.81
2022-08-03T04:21:23.538Z,99715.25
2022-08-03T04:23:52.642Z,99713.53
2022-08-03T04:26:23.804Z,99718.34
2022-08-03T04:28:53.193Z,99722.56
2022-08-03T04:31:23.677Z,99725.66
2022-08-03T04:33:54.094Z,99723.81
2022-08-03T04:36:24.038Z,99728.97
2022-08-03T04:39:00.883Z,99723.69
2022-08-03T04:41:31.881Z,99729.84
2022-08-03T04:44:02.130Z,99733.78
2022-08-03T04:46:40.252Z,99734.63
2022-08-03T04:49:15.690Z,99732.25
2022-08-03T04:51:44.897Z,99732.91
2022-08-03T04:54:13.791Z,99733.84
2022-08-03T04:56:44.734Z,99744.25
2022-08-03T04:59:13.965Z,99747.16
2022-08-03T05:01:43.067Z,99745.12
2022-08-03T05:04:11.750Z,99748.84
2022-08-03T05:06:47.860Z,99748.91
2022-08-03T05:09:45.832Z,99756.31
2022-08-03T05:12:08.260Z,99753.19
2022-08-03T05:14:38.924Z,99762.22
2022-08-03T05:17:07.977Z,99760.16
2022-08-03T05:19:37.073Z,99760.84
2022-08-03T05:22:05.713Z,99762.50
2022-08-03T05:24:34.308Z,99761.59
2022-08-03T05:27:03.150Z,99765.06
2022-08-03T05:29:33.149Z,99765.25
2022-08-03T05:32:07.759Z,99765.34
2022-08-03T05:34:37.147Z,99767.78
2022-08-03T05:37:07.277Z,99766.78
2022-08-03T05:39:37.023Z,99771.56
2022-08-03T05:42:05.783Z,99776.56
2022-08-03T05:44:38.713Z,99777.22
2022-08-03T05:47:07.714Z,99772.94
2022-08-03T05:49:36.398Z,99772.47
2022-08-03T05:52:12.951Z,99770.72
2022-08-03T05:54:56.647Z,99774.84
2022-08-03T05:57:26.673Z,99784.06
2022-08-03T05:59:58.205Z,99783.94
2022-08-03T06:02:27.724Z,99784.19
2022-08-03T06:04:56.744Z,99785.63
2022-08-03T06:07:25.367Z,99787.41
2022-08-03T06:10:34.519Z,99784.69
2022-08-03T06:12:42.878Z,99791.19
2022-08-03T06:15:12.892Z,99790.53
2022-08-03T06:17:48.418Z,99797.66
2022-08-03T06:20:18.485Z,99799.53
2022-08-03T06:22:51.016Z,99793.75
2022-08-03T06:25:28.964Z,99792.00
2022-08-03T06:27:57.765Z,99788.63
2022-08-03T06:30:27.888Z,99786.53
2022-08-03T06:32:56.767Z,99794.16
2022-08-03T06:35:25.370Z,99793.34
2022-08-03T06:37:54.068Z,99803.91
2022-08-03T06:40:29.127Z,99805.09
2022-08-03T06:42:58.318Z,99810.22
2022-08-03T06:45:31.661Z,99801.09
2022-08-03T06:48:05.727Z,99807.69
2022-08-03T06:50:35.520Z,99810.34
2022-08-03T06:53:04.826Z,99810.28
2022-08-03T06:55:36.003Z,99805.84
2022-08-03T06:58:13.931Z,99807.53
2022-08-03T07:00:43.995Z,99814.06
2022-08-03T07:03:12.840Z,99807.34
2022-08-03T07:05:41.408Z,99810.37
2022-08-03T07:08:10.061Z,99812.00
2022-08-03T07:10:39.151Z,99811.44
2022-08-03T07:13:08.288Z,99809.00
2022-08-03T07:15:55.768Z,99805.81
2022-08-03T07:18:29.630Z,99804.09
2022-08-03T07:20:58.945Z,99803.75
2022-08-03T07:23:27.830Z,99810.66
2022-08-03T07:25:56.475Z,99803.50
2022-08-03T07:28:25.106Z,99809.56
2022-08-03T07:30:53.956Z,99808.78
2022-08-03T07:33:22.588Z,99805.34
2022-08-03T07:35:52.566Z,99810.06
2022-08-03T07:38:21.495Z,99800.59
2022-08-03T07:40:50.318Z,99797.13
2022-08-03T07:43:18.949Z,99803.06
2022-08-03T07:45:47.917Z,99800.72
2022-08-03T07:48:17.758Z,99811.50
2022-08-03T07:50:46.585Z,99809.63
2022-08-03T07:53:16.981Z,99814.38
2022-08-03T07:55:45.628Z,99806.31
2022-08-03T07:58:22.095Z,99803.41
2022-08-03T08:00:54.000Z,99803.19
2022-08-03T08:03:22.944Z,99804.88
2022-08-03T08:05:51.552Z,99812.03
2022-08-03T08:08:21.512Z,99812.44
2022-08-03T08:10:58.460Z,99807.53
2022-08-03T08:13:27.441Z,99803.75
2022-08-03T08:15:56.344Z,99801.56
2022-08-03T08:18:25.112Z,99796.94
2022-08-03T08:20:53.712Z,99802.87
2022-08-03T08:23:41.898Z,99806.50
2022-08-03T08:26:12.356Z,99810.53
2022-08-03T08:28:41.323Z,99810.69
2022-08-03T08:31:09.946Z,99807.34
2022-08-03T08:36:27.407Z,99803.59
2022-08-03T08:38:57.335Z,99805.75
2022-08-03T08:41:32.146Z,99801.97
2022-08-03T08:44:01.698Z,99799.47
2022-08-03T08:46:33.827Z,99800.06
2022-08-03T08:49:04.833Z,99801.72
2022-08-03T08:51:59.476Z,99797.44
2022-08-03T08:54:28.050Z,99796.88
2022-08-03T08:56:59.351Z,99803.75
2022-08-03T08:59:48.726Z,99804.19
2022-08-03T09:02:17.772Z,99791.38
2022-08-03T09:04:48.857Z,99792.06
2022-08-03T09:07:20.710Z,99787.87
2022-08-03T09:10:11.766Z,99788.59
2022-08-03T09:12:42.544Z,99788.66
2022-08-03T09:15:19.347Z,99783.44
2022-08-03T09:17:51.087Z,99780.44
2022-08-03T09:20:23.020Z,99788.53
2022-08-03T09:22:57.090Z,99787.34
2022-08-03T09:25:34.692Z,99788.94
2022-08-03T09:28:10.347Z,99793.75
2022-08-03T09:30:41.286Z,99784.47
2022-08-03T09:33:12.131Z,99775.75
2022-08-03T09:35:58.803Z,99778.97
2022-08-03T09:38:27.613Z,99777.78
2022-08-03T09:41:00.971Z,99783.75
2022-08-03T09:43:47.198Z,99784.12
2022-08-03T09:46:16.169Z,99784.00
2022-08-03T09:48:44.849Z,99776.66
2022-08-03T09:52:22.992Z,99774.91
2022-08-03T09:54:07.591Z,99768.78
2022-08-03T09:56:42.539Z,99773.34
2022-08-03T09:59:12.683Z,99774.09
2022-08-03T10:01:44.537Z,99768.66
2022-08-03T10:04:16.927Z,99759.22
2022-08-03T10:06:46.275Z,99745.09
2022-08-03T10:09:16.889Z,99747.03
2022-08-03T10:11:47.914Z,99748.69
2022-08-03T10:14:19.978Z,99747.06
2022-08-03T10:16:49.233Z,99745.47
2022-08-03T10:19:18.439Z,99742.84
2022-08-03T10:21:50.848Z,99746.91
2022-08-03T10:24:25.294Z,99737.47
2022-08-03T10:27:00.887Z,99743.03
2022-08-03T10:29:30.188Z,99736.38
2022-08-03T10:32:00.019Z,99738.12
2022-08-03T10:34:30.770Z,99735.38
2022-08-03T10:37:01.392Z,99738.47
2022-08-03T10:39:34.937Z,99735.94
2022-08-03T10:42:05.520Z,99728.47
2022-08-03T10:44:43.640Z,99723.69
2022-08-03T10:47:12.814Z,99731.69
2022-08-03T10:49:41.922Z,99729.69
2022-08-03T10:52:13.853Z,99724.81
2022-08-03T10:55:33.084Z,99717.50
2022-08-03T10:58:07.984Z,99718.72
2022-08-03T11:00:50.289Z,99711.75
2022-08-03T11:03:19.251Z,99710.56
2022-08-03T11:05:50.160Z,99708.28
2022-08-03T11:08:33.696Z,99705.72
2022-08-03T11:11:04.570Z,99701.50
2022-08-03T11:13:34.825Z,99698.66
2022-08-03T11:16:07.219Z,99696.81
2022-08-03T11:18:57.086Z,99688.94
2022-08-03T11:21:59.044Z,99691.91
2022-08-03T11:24:58.881Z,99683.31
2022-08-03T11:27:31.959Z,99684.38
2022-08-03T11:30:08.103Z,99685.47
2022-08-03T11:32:53.556Z,99682.88
2022-08-03T11:35:23.895Z,99680.84
2022-08-03T11:38:07.205Z,99676.16
2022-08-03T11:40:38.727Z,99676.50
2022-08-03T11:43:08.789Z,99672.13
2022-08-03T11:45:39.264Z,99667.34
2022-08-03T11:48:16.507Z,99662.81
2022-08-03T11:50:46.331Z,99659.69
2022-08-03T11:53:21.285Z,99670.28
2022-08-03T11:55:50.285Z,99668.25
2022-08-03T11:59:01.382Z,99666.91
2022-08-03T12:01:14.102Z,99661.28
2022-08-03T12:03:43.082Z,99664.50
2022-08-03T12:06:12.531Z,99660.34
2022-08-03T12:08:42.327Z,99663.97
2022-08-03T12:11:13.059Z,99658.34
2022-08-03T12:14:44.636Z,99652.06
2022-08-03T12:16:33.604Z,99657.50
2022-08-03T12:19:04.903Z,99659.91
2022-08-03T12:21:34.043Z,99659.91
2022-08-03T12:24:04.015Z,99658.25
2022-08-03T12:26:45.323Z,99659.63
2022-08-03T12:29:28.267Z,99653.88
2022-08-03T12:31:58.641Z,99651.31
2022-08-03T12:34:48.230Z,99651.31
2022-08-03T12:37:22.819Z,99645.59
2022-08-03T12:40:02.195Z,99645.00
2022-08-03T12:42:36.631Z,99644.47
2022-08-03T12:45:24.278Z,99640.97
2022-08-03T12:47:56.176Z,99635.75
2022-08-03T12:50:26.628Z,99631.28
2022-08-03T12:52:55.749Z,99625.22
2022-08-03T12:55:24.726Z,99629.34
2022-08-03T12:57:53.367Z,99625.75
2022-08-03T13:00:28.756Z,99630.50
2022-08-03T13:03:38.381Z,99629.28
2022-08-03T13:05:52.849Z,99623.47
2022-08-03T13:08:22.191Z,99626.44
2022-08-03T13:10:51.257Z,99611.97
2022-08-03T13:13:22.406Z,99616.03
2022-08-03T13:15:52.289Z,99614.88
2022-08-03T13:18:22.537Z,99610.19
2022-08-03T13:20:51.195Z,99610.56
2022-08-03T13:23:22.220Z,99603.75
2022-08-03T13:25:55.592Z,99603.19
2022-08-03T13:28:24.732Z,99605.31
2022-08-03T13:30:54.835Z,99596.41
2022-08-03T13:33:24.856Z,99595.78
2022-08-03T13:35:53.790Z,99599.81
2022-08-03T13:38:22.499Z,99602.03
2022-08-03T13:40:56.371Z,99595.16
2022-08-03T13:43:25.333Z,99597.25
2022-08-03T13:45:57.688Z,99591.72
2022-08-03T13:48:36.112Z,99604.16
2022-08-03T13:51:22.274Z,99588.87
2022-08-03T13:53:52.255Z,99593.91
2022-08-03T13:56:20.965Z,99587.00
2022-08-03T13:58:49.590Z,99584.72
2022-08-03T14:01:25.945Z,99578.62
2022-08-03T14:04:21.971Z,99581.25
2022-08-03T14:06:51.045Z,99574.81
2022-08-03T14:09:19.923Z,99579.44
2022-08-03T14:12:04.164Z,99576.38
2022-08-03T14:14:37.761Z,99578.50
2022-08-03T14:17:06.526Z,99563.31
2022-08-03T14:19:44.918Z,99570.00
2022-08-03T14:22:22.755Z,99560.81
2022-08-03T14:24:51.326Z,99557.25
2022-08-03T14:27:20.358Z,99560.53
2022-08-03T14:29:49.324Z,99556.12
2022-08-03T14:32:17.922Z,99553.69
2022-08-03T14:34:47.914Z,99562.47
2022-08-03T14:37:16.727Z,99560.81
2022-08-03T14:40:02.348Z,99552.81
2022-08-03T14:42:31.296Z,99550.72
2022-08-03T14:45:04.632Z,99552.37
2022-08-03T14:49:02.241Z,99553.28
2022-08-03T14:50:37.683Z,99544.72
2022-08-03T14:53:10.900Z,99542.66
2022-08-03T14:55:49.611Z,99544.13
2022-08-03T14:58:21.024Z,99537.44
2022-08-03T15:00:51.226Z,99542.97
2022-08-03T15:03:23.129Z,99541.91
2022-08-03T15:05:54.051Z,99542.00
2022-08-03T15:08:25.468Z,99540.09
2022-08-03T15:10:54.600Z,99538.84
2022-08-03T15:13:25.292Z,99537.16
2022-08-03T15:15:53.905Z,99536.00
2022-08-03T15:18:22.846Z,99535.50
2022-08-03T15:20:51.424Z,99526.44
2022-08-03T15:23:21.389Z,99529.63
2022-08-03T15:26:30.239Z,99533.34
2022-08-03T15:28:38.873Z,99529.75
2022-08-03T15:31:07.822Z,99536.41
2022-08-03T15:33:36.427Z,99527.50
2022-08-03T15:36:05.731Z,99525.41
2022-08-03T15:38:35.962Z,99529.00
2022-08-03T15:41:04.627Z,99526.56
2022-08-03T15:43:33.249Z,99535.13
2022-08-03T15:48:56.301Z,99525.81
2022-08-03T15:51:25.576Z,99525.50
2022-08-03T15:53:56.191Z,99527.16
2022-08-03T15:56:25.070Z,99521.44
2022-08-03T15:59:03.903Z,99520.97
2022-08-03T16:01:42.316Z,99524.41
2022-08-03T16:04:11.266Z,99524.97
2022-08-03T16:06:39.899Z,99520.22
2022-08-03T16:09:23.919Z,99513.53
2022-08-03T16:11:59.240Z,99519.38
2022-08-03T16:14:33.290Z,99519.25
2022-08-03T16:17:06.847Z,99515.66
2022-08-03T16:19:35.776Z,99508.41
2022-08-03T16:22:04.466Z,99513.06
2022-08-03T16:24:38.444Z,99509.47
2022-08-03T16:27:17.685Z,99504.03
2022-08-03T16:29:57.690Z,99511.09
2022-08-03T16:32:26.324Z,99508.91
2022-08-03T16:34:54.925Z,99508.50
2022-08-03T16:37:38.136Z,99505.03
2022-08-03T16:40:17.307Z,99503.00
2022-08-03T16:42:48.148Z,99508.03
2022-08-03T16:45:16.682Z,99509.03
2022-08-03T16:47:45.320Z,99505.87
2022-08-03T16:50:19.248Z,99503.63
2022-08-03T16:52:48.761Z,99503.56
2022-08-03T16:55:48.418Z,99510.44
2022-08-03T16:58:08.237Z,99512.19
2022-08-03T17:00:42.124Z,99509.53
2022-08-03T17:03:18.867Z,99513.34
2022-08-03T17:05:50.894Z,99515.63
2022-08-03T17:08:26.634Z,99520.84
2022-08-03T17:10:57.975Z,99524.06
2022-08-03T17:13:39.216Z,99522.44
2022-08-03T17:16:12.055Z,99521.56
2022-08-03T17:18:48.551Z,99525.78
2022-08-03T17:21:24.851Z,99527.78
2022-08-03T17:24:01.648Z,99526.94
2022-08-03T17:26:32.981Z,99529.63
2022-08-03T17:29:12.926Z,99534.66
2022-08-03T17:31:49.005Z,99531.44
2022-08-03T17:34:19.093Z,99533.63
2022-08-03T17:37:05.878Z,99529.94
2022-08-03T17:42:30.814Z,99531.50
2022-08-03T17:45:01.576Z,99533.12
2022-08-03T17:47:42.443Z,99532.72
2022-08-03T17:50:23.478Z,99537.50
2022-08-03T17:53:07.888Z,99541.63
2022-08-03T17:55:55.384Z,99537.91
2022-08-03T17:58:41.390Z,99538.63
2022-08-03T18:02:00.479Z,99543.75
2022-08-03T18:04:30.405Z,99540.38
2022-08-03T18:07:11.192Z,99542.53
2022-08-03T18:10:04.729Z,99541.53
2022-08-03T18:12:39.543Z,99537.16
2022-08-03T18:15:22.997Z,99543.25
2022-08-03T18:17:58.215Z,99553.75
2022-08-03T18:20:40.868Z,99558.09
2022-08-03T18:23:25.291Z,99559.22
2022-08-03T18:26:06.824Z,99566.41
2022-08-03T18:28:40.451Z,99562.22
2022-08-03T18:31:12.775Z,99568.19
2022-08-03T18:34:16.659Z,99569.59
2022-08-03T18:36:50.437Z,99569.94
2022-08-03T18:39:19.693Z,99572.72
2022-08-03T18:41:51.006Z,99573.19
2022-08-03T18:44:45.613Z,99570.25
2022-08-03T18:47:20.209Z,99574.31
2022-08-03T18:49:58.692Z,99577.69
2022-08-03T18:52:30.791Z,99577.28
2022-08-03T18:55:12.505Z,99580.78
2022-08-03T18:57:51.424Z,99589.63
2022-08-03T19:00:24.366Z,99580.06
2022-08-03T19:03:09.246Z,99585.12
2022-08-03T19:05:56.267Z,99589.06
2022-08-03T19:08:37.995Z,99585.91
2022-08-03T19:11:09.319Z,99595.72
2022-08-03T19:13:50.019Z,99599.22
2022-08-03T19:16:23.273Z,99601.50
2022-08-03T19:18:55.872Z,99604.13
2022-08-03T19:21:25.035Z,99604.66
2022-08-03T19:23:55.523Z,99615.72
2022-08-03T19:29:17.984Z,99609.38
2022-08-03T19:31:58.792Z,99603.78
2022-08-03T19:34:33.469Z,99603.59
2022-08-03T19:37:09.630Z,99606.94
2022-08-03T19:39:47.090Z,99613.28
2022-08-03T19:42:31.376Z,99613.00
2022-08-03T19:45:11.385Z,99609.25
2022-08-03T19:47:46.782Z,99609.72
2022-08-03T19:50:19.371Z,99622.06
2022-08-03T19:52:50.426Z,99614.09
2022-08-03T19:55:19.769Z,99616.16
2022-08-03T19:57:49.678Z,99622.00
2022-08-03T20:00:26.704Z,99624.53
2022-08-03T20:03:00.106Z,99624.16
2022-08-03T20:05:30.641Z,99629.88
2022-08-03T20:08:14.980Z,99632.41
2022-08-03T20:10:50.075Z,99628.37
2022-08-03T20:13:21.478Z,99633.91
2022-08-03T20:15:57.326Z,99630.00
2022-08-03T20:18:26.578Z,99625.38
2022-08-03T20:20:57.867Z,99631.62
2022-08-03T20:23:28.256Z,99630.78
2022-08-03T20:26:07.357Z,99631.44
2022-08-03T20:28:50.196Z,99628.66
2022-08-03T20:31:25.163Z,99630.25
2022-08-03T20:34:01.809Z,99625.91
2022-08-03T20:36:31.780Z,99627.37
2022-08-03T20:39:01.031Z,99630.75
2022-08-03T20:41:30.592Z,99630.81
2022-08-03T20:44:00.925Z,99624.59
2022-08-03T20:46:41.404Z,99627.97
2022-08-03T20:49:21.291Z,99625.69
2022-08-03T20:51:53.900Z,99621.88
2022-08-03T20:54:31.193Z,99626.00
2022-08-03T20:57:04.239Z,99613.19
2022-08-03T20:59:50.839Z,99626.75
2022-08-03T21:02:28.946Z,99622.53
2022-08-03T21:05:03.737Z,99623.72
2022-08-03T21:08:04.354Z,99618.63
2022-08-03T21:10:32.954Z,99620.94
2022-08-03T21:13:02.203Z,99607.38
2022-08-03T21:13:16.297Z,99619.97
2022-08-03T21:16:12.455Z,99628.19
2022-08-03T21:18:44.141Z,99626.50
2022-08-03T21:21:15.899Z,99629.66
2022-08-03T21:23:49.099Z,99628.44
2022-08-03T21:26:18.895Z,99632.44
2022-08-03T21:28:48.998Z,99626.16
2022-08-03T21:31:23.719Z,99631.00
2022-08-03T21:33:56.281Z,99627.13
2022-08-03T21:36:25.996Z,99634.25
2022-08-03T21:38:57.703Z,99641.25
2022-08-03T21:41:27.511Z,99643.81
2022-08-03T21:43:56.422Z,99644.78
2022-08-03T21:46:25.414Z,99640.91
2022-08-03T21:50:02.669Z,99656.97
2022-08-03T21:51:51.481Z,99644.28
2022-08-03T21:54:22.595Z,99650.81
2022-08-03T21:56:52.592Z,99656.00
2022-08-03T21:59:21.917Z,99653.00
2022-08-03T22:01:55.350Z,99649.72
2022-08-03T22:04:53.322Z,99656.94
2022-08-03T22:07:17.040Z,99661.75
2022-08-03T22:09:51.391Z,99652.50
2022-08-03T22:12:24.460Z,99658.25
2022-08-03T22:15:00.107Z,99656.13
2022-08-03T22:17:53.740Z,99659.78
2022-08-03T22:20:22.536Z,99654.47
2022-08-03T22:22:56.577Z,99658.50
2022-08-03T22:25:29.915Z,99655.22
2022-08-03T22:28:00.572Z,99658.25
2022-08-03T22:30:29.784Z,99660.91
2022-08-03T22:32:59.160Z,99663.88
2022-08-03T22:35:28.480Z,99662.16
2022-08-03T22:37:59.503Z,99660.00
2022-08-03T22:40:29.703Z,99662.19
2022-08-03T22:42:58.854Z,99660.88
2022-08-03T22:46:07.428Z,99668.84
2022-08-03T22:48:18.049Z,99666.69
2022-08-03T22:50:49.985Z,99662.00
2022-08-03T22:53:20.215Z,99668.59
2022-08-03T22:55:50.936Z,99666.22
2022-08-03T22:58:21.705Z,99665.37
2022-08-03T23:00:54.120Z,99669.81
2022-08-03T23:03:25.940Z,99665.00
2022-08-03T23:06:15.770Z,99665.78
2022-08-03T23:08:47.482Z,99663.53
2022-08-03T23:11:19.118Z,99654.22
2022-08-03T23:13:48.763Z,99664.59
2022-08-03T23:16:28.770Z,99668.63
2022-08-03T23:19:06.564Z,99673.78
2022-08-03T23:21:52.884Z,99665.91
2022-08-03T23:24:30.189Z,99664.09
2022-08-03T23:27:00.786Z,99668.31
2022-08-03T23:29:31.739Z,99672.19
2022-08-03T23:32:02.566Z,99666.25
2022-08-03T23:34:51.167Z,99671.47
2022-08-03T23:37:20.760Z,99677.94
2022-08-03T23:39:50.137Z,99678.16
2022-08-03T23:42:21.351Z,99677.91
2022-08-03T23:44:55.361Z,99669.31
2022-08-03T23:47:24.675Z,99675.63
2022-08-03T23:50:13.453Z,99675.03
2022-08-03T23:52:51.768Z,99671.97
2022-08-03T23:55:36.133Z,99673.19
2022-08-03T23:58:12.543Z,99669.78
